createdAt,value
2022-08-25T00:01:20.471Z,5.82
2022-08-25T00:03:47.786Z,8.00
2022-08-25T00:06:15.560Z,5.82
2022-08-25T00:08:43.111Z,6.60
2022-08-25T00:11:13.716Z,5.82
2022-08-25T00:13:46.274Z,9.30
2022-08-25T00:16:17.994Z,7.63
2022-08-25T00:18:46.911Z,10.00
2022-08-25T00:21:15.249Z,8.95
2022-08-25T00:23:42.972Z,6.57
2022-08-25T00:26:10.304Z,7.28
2022-08-25T00:28:37.655Z,8.18
2022-08-25T00:31:05.331Z,5.93
2022-08-25T00:33:31.842Z,8.07
2022-08-25T00:35:59.997Z,7.82
2022-08-25T00:38:26.967Z,6.40
2022-08-25T00:41:06.521Z,6.93
2022-08-25T00:43:57.850Z,8.90
2022-08-25T00:46:28.251Z,10.90
2022-08-25T00:49:02.854Z,8.85
2022-08-25T00:51:58.147Z,10.52
2022-08-25T00:54:52.970Z,6.78
2022-08-25T00:57:34.457Z,7.78
2022-08-25T01:00:05.948Z,8.52
2022-08-25T01:02:32.471Z,7.90
2022-08-25T01:04:59.251Z,7.93
2022-08-25T01:07:25.735Z,7.32
2022-08-25T01:09:53.164Z,8.40
2022-08-25T01:12:20.402Z,10.55
2022-08-25T01:14:48.564Z,10.10
2022-08-25T01:17:17.986Z,11.13
2022-08-25T01:19:44.573Z,11.48
2022-08-25T01:22:12.000Z,9.63
2022-08-25T01:24:45.163Z,8.60
2022-08-25T01:27:11.647Z,7.25
2022-08-25T01:29:38.625Z,10.10
2022-08-25T01:32:08.910Z,8.02
2022-08-25T01:34:37.893Z,8.05
2022-08-25T01:37:05.331Z,9.98
2022-08-25T01:39:38.796Z,9.50
2022-08-25T01:42:11.395Z,9.57
2022-08-25T01:44:40.683Z,11.38
2022-08-25T01:47:08.107Z,11.05
2022-08-25T01:49:35.187Z,7.75
2022-08-25T01:52:24.783Z,7.90
2022-08-25T01:54:51.183Z,9.35
2022-08-25T01:57:17.729Z,11.75
2022-08-25T01:59:44.910Z,7.47
2022-08-25T02:02:12.156Z,11.40
2022-08-25T02:04:39.440Z,9.07
2022-08-25T02:07:09.367Z,9.77
2022-08-25T02:09:37.207Z,15.27
2022-08-25T02:12:04.015Z,8.80
2022-08-25T02:14:30.540Z,7.05
2022-08-25T02:16:57.302Z,9.50
2022-08-25T02:19:25.883Z,11.65
2022-08-25T02:21:52.686Z,7.47
2022-08-25T02:24:19.191Z,9.63
2022-08-25T02:26:45.777Z,10.13
2022-08-25T02:29:12.353Z,10.00
2022-08-25T02:31:39.449Z,8.48
2022-08-25T02:34:06.779Z,10.52
2022-08-25T02:36:33.367Z,7.57
2022-08-25T02:39:00.812Z,9.20
2022-08-25T02:41:31.054Z,8.35
2022-08-25T02:43:59.213Z,9.68
2022-08-25T02:46:25.759Z,8.90
2022-08-25T02:48:53.229Z,8.50
2022-08-25T02:51:21.976Z,7.25
2022-08-25T02:53:48.859Z,7.55
2022-08-25T02:56:18.155Z,7.47
2022-08-25T02:58:45.884Z,9.60
2022-08-25T03:01:12.880Z,8.93
2022-08-25T03:03:40.645Z,8.68
2022-08-25T03:06:09.724Z,6.80
2022-08-25T03:08:37.139Z,5.57
2022-08-25T03:11:05.521Z,8.50
2022-08-25T03:13:32.657Z,7.35
2022-08-25T03:16:00.399Z,5.23
2022-08-25T03:18:27.463Z,8.75
2022-08-25T03:20:54.851Z,8.43
2022-08-25T03:23:21.237Z,7.93
2022-08-25T03:26:06.275Z,7.63
2022-08-25T03:28:33.222Z,7.15
2022-08-25T03:31:01.197Z,7.43
2022-08-25T03:33:31.698Z,7.68
2022-08-25T03:35:59.179Z,6.75
2022-08-25T03:38:26.339Z,8.20
2022-08-25T03:40:53.507Z,8.00
2022-08-25T03:43:20.516Z,9.30
2022-08-25T03:45:47.832Z,9.98
2022-08-25T03:48:15.440Z,9.20
2022-08-25T03:50:50.670Z,10.35
2022-08-25T03:53:19.704Z,7.93
2022-08-25T03:55:46.223Z,10.43
2022-08-25T03:58:12.771Z,10.50
2022-08-25T04:00:39.523Z,11.63
2022-08-25T04:03:06.120Z,10.65
2022-08-25T04:05:32.974Z,12.23
2022-08-25T04:08:01.623Z,10.05
2022-08-25T04:10:28.950Z,10.65
2022-08-25T04:12:56.024Z,9.13
2022-08-25T04:15:28.485Z,10.05
2022-08-25T04:17:58.736Z,11.85
2022-08-25T04:20:25.324Z,10.98
2022-08-25T04:22:51.794Z,13.48
2022-08-25T04:25:18.193Z,12.45
2022-08-25T04:27:44.597Z,10.07
2022-08-25T04:30:11.686Z,8.68
2022-08-25T04:32:38.028Z,14.40
2022-08-25T04:35:05.420Z,11.73
2022-08-25T04:37:33.558Z,13.60
2022-08-25T04:40:00.376Z,13.02
2022-08-25T04:42:27.234Z,13.93
2022-08-25T04:44:54.522Z,12.82
2022-08-25T04:47:21.106Z,13.52
2022-08-25T04:49:47.796Z,15.98
2022-08-25T04:52:14.747Z,10.05
2022-08-25T04:54:41.997Z,8.55
2022-08-25T04:57:08.361Z,12.02
2022-08-25T04:59:34.825Z,8.48
2022-08-25T05:02:05.549Z,10.45
2022-08-25T05:04:34.695Z,13.00
2022-08-25T05:07:01.716Z,10.98
2022-08-25T05:09:28.427Z,13.23
2022-08-25T05:11:55.279Z,7.78
2022-08-25T05:14:22.635Z,9.30
2022-08-25T05:16:53.238Z,12.23
2022-08-25T05:19:19.797Z,10.10
2022-08-25T05:21:46.236Z,10.02
2022-08-25T05:24:12.644Z,12.57
2022-08-25T05:26:39.689Z,8.95
2022-08-25T05:29:06.217Z,10.02
2022-08-25T05:31:34.399Z,8.60
2022-08-25T05:34:07.825Z,8.75
2022-08-25T05:36:34.283Z,7.72
2022-08-25T05:39:00.858Z,8.88
2022-08-25T05:41:30.192Z,7.25
2022-08-25T05:43:57.210Z,12.20
2022-08-25T05:46:24.232Z,7.53
2022-08-25T05:48:50.947Z,10.75
2022-08-25T05:51:17.667Z,9.65
2022-08-25T05:53:47.970Z,10.68
2022-08-25T05:56:14.759Z,6.85
2022-08-25T05:58:42.395Z,9.02
2022-08-25T06:01:28.943Z,11.90
2022-08-25T06:03:55.533Z,10.10
2022-08-25T06:06:23.384Z,9.25
2022-08-25T06:08:50.370Z,12.30
2022-08-25T06:11:16.825Z,11.45
2022-08-25T06:13:43.444Z,8.25
2022-08-25T06:16:09.992Z,7.53
2022-08-25T06:18:36.507Z,8.82
2022-08-25T06:21:14.211Z,9.63
2022-08-25T06:23:40.780Z,9.27
2022-08-25T06:26:10.843Z,8.43
2022-08-25T06:28:40.128Z,8.15
2022-08-25T06:31:06.694Z,8.73
2022-08-25T06:33:33.297Z,10.43
2022-08-25T06:35:59.890Z,7.22
2022-08-25T06:38:27.169Z,7.00
2022-08-25T06:40:54.061Z,6.77
2022-08-25T06:43:21.538Z,9.23
2022-08-25T06:45:48.456Z,14.57
2022-08-25T06:48:15.434Z,9.07
2022-08-25T06:50:43.212Z,8.73
2022-08-25T06:53:09.745Z,10.18
2022-08-25T06:55:36.802Z,12.48
2022-08-25T06:58:04.954Z,9.15
2022-08-25T07:00:33.137Z,7.82
2022-08-25T07:03:01.087Z,14.63
2022-08-25T07:08:11.576Z,12.65
2022-08-25T07:10:37.987Z,7.50
2022-08-25T07:13:04.365Z,8.32
2022-08-25T07:15:30.766Z,6.47
2022-08-25T07:17:57.714Z,11.20
2022-08-25T07:22:51.988Z,9.23
2022-08-25T07:25:18.508Z,11.32
2022-08-25T07:27:45.556Z,11.60
2022-08-25T07:30:12.050Z,9.85
2022-08-25T07:32:42.228Z,10.23
2022-08-25T07:35:16.131Z,7.93
2022-08-25T07:40:37.658Z,6.00
2022-08-25T07:43:09.478Z,7.97
2022-08-25T07:45:48.511Z,6.82
2022-08-25T07:48:19.657Z,7.55
2022-08-25T07:50:47.571Z,7.43
2022-08-25T07:53:16.220Z,7.78
2022-08-25T07:55:42.771Z,7.10
2022-08-25T07:58:12.365Z,7.22
2022-08-25T08:00:40.494Z,4.72
2022-08-25T08:03:12.838Z,8.25
2022-08-25T08:05:50.522Z,6.85
2022-08-25T08:08:16.915Z,6.07
2022-08-25T08:11:04.079Z,5.10
2022-08-25T08:13:34.864Z,6.88
2022-08-25T08:16:09.462Z,7.95
2022-08-25T08:18:35.984Z,10.23
2022-08-25T08:21:02.412Z,7.72
2022-08-25T08:23:30.547Z,6.63
2022-08-25T08:25:57.142Z,7.22
2022-08-25T08:28:27.727Z,6.75
2022-08-25T08:30:54.337Z,9.82
2022-08-25T08:35:55.955Z,12.02
2022-08-25T08:38:27.057Z,7.38
2022-08-25T08:42:07.629Z,7.60
2022-08-25T08:44:45.575Z,7.78
2022-08-25T08:47:11.919Z,6.30
2022-08-25T08:49:54.316Z,7.93
2022-08-25T08:52:24.492Z,6.30
2022-08-25T08:55:00.816Z,6.32
2022-08-25T08:57:28.912Z,7.43
2022-08-25T09:00:05.340Z,7.07
2022-08-25T09:02:51.746Z,10.57
2022-08-25T09:05:21.135Z,6.80
2022-08-25T09:07:54.814Z,11.77
2022-08-25T09:10:24.350Z,8.07
2022-08-25T09:13:16.543Z,7.05
2022-08-25T09:16:18.341Z,5.45
2022-08-25T09:19:23.333Z,8.65
2022-08-25T09:22:34.971Z,9.50
2022-08-25T09:25:11.233Z,7.55
2022-08-25T09:28:27.489Z,10.65
2022-08-25T09:30:57.811Z,5.70
2022-08-25T09:33:29.371Z,6.80
2022-08-25T09:36:09.245Z,7.15
2022-08-25T09:38:36.282Z,7.35
2022-08-25T09:41:06.990Z,6.35
2022-08-25T09:43:53.703Z,9.88
2022-08-25T09:46:29.694Z,7.05
2022-08-25T09:49:10.276Z,6.38
2022-08-25T09:51:42.793Z,6.20
2022-08-25T09:54:12.639Z,5.78
2022-08-25T09:57:01.774Z,12.05
2022-08-25T09:59:35.444Z,8.32
2022-08-25T10:02:26.127Z,5.05
2022-08-25T10:04:53.640Z,8.38
2022-08-25T10:07:27.734Z,12.57
2022-08-25T10:09:58.550Z,7.47
2022-08-25T10:12:32.544Z,5.90
2022-08-25T10:14:59.429Z,6.22
2022-08-25T10:17:33.595Z,4.72
2022-08-25T10:20:21.470Z,7.70
2022-08-25T10:22:50.409Z,6.32
2022-08-25T10:25:25.427Z,4.03
2022-08-25T10:28:24.147Z,9.82
2022-08-25T10:31:15.836Z,5.80
2022-08-25T10:34:21.263Z,6.63
2022-08-25T10:37:32.696Z,4.27
2022-08-25T10:40:24.877Z,7.00
2022-08-25T10:43:13.430Z,7.28
2022-08-25T10:45:49.839Z,8.27
2022-08-25T10:48:52.661Z,7.47
2022-08-25T10:51:28.231Z,5.22
2022-08-25T10:54:05.932Z,3.55
2022-08-25T10:56:40.916Z,5.57
2022-08-25T10:59:22.533Z,7.80
2022-08-25T11:02:03.918Z,5.40
2022-08-25T11:04:48.860Z,5.65
2022-08-25T11:07:45.736Z,6.25
2022-08-25T11:10:20.138Z,8.55
2022-08-25T11:12:54.663Z,5.93
2022-08-25T11:15:34.088Z,4.43
2022-08-25T11:18:14.721Z,6.00
2022-08-25T11:21:01.787Z,5.63
2022-08-25T11:23:40.196Z,5.82
2022-08-25T11:26:12.798Z,7.63
2022-08-25T11:28:46.671Z,4.40
2022-08-25T11:31:14.700Z,4.47
2022-08-25T11:33:43.379Z,5.50
2022-08-25T11:36:32.681Z,5.90
2022-08-25T11:39:22.006Z,3.63
2022-08-25T11:42:31.939Z,4.22
2022-08-25T11:45:35.836Z,5.80
2022-08-25T11:48:27.753Z,3.08
2022-08-25T11:51:10.828Z,4.30
2022-08-25T11:53:41.781Z,4.53
2022-08-25T11:56:33.198Z,6.18
2022-08-25T11:59:01.233Z,5.25
2022-08-25T12:01:39.417Z,4.05
2022-08-25T12:04:31.149Z,5.35
2022-08-25T12:07:07.012Z,4.60
2022-08-25T12:09:53.923Z,5.13
2022-08-25T12:15:36.602Z,5.55
2022-08-25T12:18:18.686Z,3.67
2022-08-25T12:20:53.954Z,3.90
2022-08-25T12:23:33.025Z,7.07
2022-08-25T12:26:34.888Z,4.45
2022-08-25T12:29:15.197Z,6.88
2022-08-25T12:32:06.932Z,3.40
2022-08-25T12:35:13.911Z,5.10
2022-08-25T12:37:57.455Z,3.03
2022-08-25T12:40:36.977Z,3.60
2022-08-25T12:43:10.532Z,5.13
2022-08-25T12:45:43.342Z,7.00
2022-08-25T12:48:27.948Z,8.05
2022-08-25T12:51:00.387Z,5.05
2022-08-25T12:53:44.187Z,4.35
2022-08-25T12:56:20.278Z,3.95
2022-08-25T12:59:00.251Z,7.28
2022-08-25T13:01:52.334Z,3.78
2022-08-25T13:05:00.850Z,3.10
2022-08-25T13:07:53.415Z,9.32
2022-08-25T13:10:20.721Z,6.22
2022-08-25T13:13:00.295Z,5.75
2022-08-25T13:15:41.811Z,3.78
2022-08-25T13:18:21.911Z,6.72
2022-08-25T13:20:52.542Z,3.47
2022-08-25T13:23:25.787Z,6.05
2022-08-25T13:25:54.159Z,4.53
2022-08-25T13:28:31.242Z,4.00
2022-08-25T13:31:22.564Z,5.20
2022-08-25T13:34:02.256Z,4.15
2022-08-25T13:36:54.180Z,4.20
2022-08-25T13:39:45.695Z,3.10
2022-08-25T13:42:16.040Z,2.78
2022-08-25T13:44:51.769Z,5.43
2022-08-25T13:47:45.674Z,5.65
2022-08-25T13:50:28.349Z,4.25
2022-08-25T13:53:01.818Z,4.65
2022-08-25T13:55:50.872Z,2.20
2022-08-25T13:58:24.847Z,3.97
2022-08-25T14:01:22.233Z,5.50
2022-08-25T14:04:39.691Z,6.50
2022-08-25T14:07:23.020Z,2.97
2022-08-25T14:10:03.960Z,4.55
2022-08-25T14:12:33.609Z,5.55
2022-08-25T14:15:20.255Z,3.95
2022-08-25T14:18:04.588Z,5.35
2022-08-25T14:20:33.734Z,4.38
2022-08-25T14:23:05.664Z,3.92
2022-08-25T14:25:36.881Z,3.35
2022-08-25T14:28:15.000Z,4.70
2022-08-25T14:30:51.667Z,4.65
2022-08-25T14:33:21.782Z,2.75
2022-08-25T14:35:53.762Z,2.33
2022-08-25T14:38:21.422Z,6.40
2022-08-25T14:40:49.785Z,3.55
2022-08-25T14:43:16.907Z,4.70
2022-08-25T14:45:46.954Z,2.75
2022-08-25T14:48:24.205Z,3.70
2022-08-25T14:50:51.764Z,4.73
2022-08-25T14:53:18.200Z,5.03
2022-08-25T14:55:44.604Z,6.47
2022-08-25T14:58:11.045Z,5.53
2022-08-25T15:00:41.747Z,7.25
2022-08-25T15:03:10.221Z,4.25
2022-08-25T15:05:36.983Z,3.78
2022-08-25T15:10:48.801Z,3.92
2022-08-25T15:13:15.179Z,3.72
2022-08-25T15:15:58.126Z,9.13
2022-08-25T15:18:25.767Z,3.40
2022-08-25T15:20:52.141Z,4.38
2022-08-25T15:23:19.428Z,3.25
2022-08-25T15:25:47.829Z,3.70
2022-08-25T15:28:17.238Z,3.78
2022-08-25T15:30:45.699Z,3.67
2022-08-25T15:33:13.364Z,3.80
2022-08-25T15:35:41.135Z,5.15
2022-08-25T15:38:08.058Z,6.25
2022-08-25T15:40:37.377Z,3.15
2022-08-25T15:43:03.933Z,3.28
2022-08-25T15:45:30.497Z,6.43
2022-08-25T15:47:57.176Z,4.63
2022-08-25T15:50:26.000Z,3.63
2022-08-25T15:52:52.888Z,2.70
2022-08-25T15:55:20.032Z,2.75
2022-08-25T15:57:47.750Z,5.25
2022-08-25T16:00:17.954Z,3.45
2022-08-25T16:02:45.608Z,6.93
2022-08-25T16:05:13.693Z,4.20
2022-08-25T16:07:42.679Z,6.03
2022-08-25T16:10:09.908Z,3.53
2022-08-25T16:12:37.696Z,3.95
2022-08-25T16:15:04.303Z,3.50
2022-08-25T16:17:30.695Z,4.60
2022-08-25T16:19:57.254Z,6.20
2022-08-25T16:22:23.627Z,3.95
2022-08-25T16:24:52.406Z,5.10
2022-08-25T16:29:47.193Z,3.83
2022-08-25T16:32:14.993Z,3.55
2022-08-25T16:34:44.287Z,3.70
2022-08-25T16:37:11.467Z,4.43
2022-08-25T16:39:39.995Z,4.80
2022-08-25T16:42:07.795Z,3.58
2022-08-25T16:44:34.434Z,3.88
2022-08-25T16:47:01.363Z,2.53
2022-08-25T16:49:27.938Z,6.13
2022-08-25T16:51:57.589Z,2.53
2022-08-25T16:54:43.740Z,5.05
2022-08-25T16:57:10.806Z,5.57
2022-08-25T16:59:37.232Z,3.00
2022-08-25T17:02:03.907Z,3.47
2022-08-25T17:04:32.129Z,4.68
2022-08-25T17:06:59.071Z,3.30
2022-08-25T17:09:25.524Z,4.95
2022-08-25T17:11:56.485Z,3.13
2022-08-25T17:14:22.937Z,6.13
2022-08-25T17:16:51.327Z,12.17
2022-08-25T17:19:18.586Z,13.35
2022-08-25T17:21:49.949Z,9.32
2022-08-25T17:24:17.491Z,5.75
2022-08-25T17:26:46.291Z,6.13
2022-08-25T17:29:13.146Z,5.90
2022-08-25T17:31:40.456Z,4.75
2022-08-25T17:34:10.334Z,7.72
2022-08-25T17:36:38.377Z,4.18
2022-08-25T17:39:08.651Z,3.30
2022-08-25T17:41:37.808Z,4.00
2022-08-25T17:44:05.020Z,4.40
2022-08-25T17:46:31.804Z,3.80
2022-08-25T17:48:58.362Z,5.63
2022-08-25T17:51:25.160Z,4.50
2022-08-25T17:56:22.131Z,4.50
2022-08-25T17:58:49.191Z,5.97
2022-08-25T18:01:19.738Z,5.32
2022-08-25T18:03:49.115Z,4.95
2022-08-25T18:06:16.150Z,5.07
2022-08-25T18:08:43.599Z,9.38
2022-08-25T18:13:38.127Z,5.72
2022-08-25T18:16:05.514Z,4.05
2022-08-25T18:18:34.265Z,4.07
2022-08-25T18:23:28.622Z,5.13
2022-08-25T18:26:00.771Z,5.05
2022-08-25T18:28:28.878Z,4.47
2022-08-25T18:30:55.487Z,3.47
2022-08-25T18:33:22.733Z,4.75
2022-08-25T18:35:49.156Z,6.47
2022-08-25T18:38:34.267Z,6.00
2022-08-25T18:41:04.948Z,5.32
2022-08-25T18:43:33.988Z,3.40
2022-08-25T18:46:04.846Z,5.80
2022-08-25T18:48:32.079Z,7.57
2022-08-25T18:51:00.467Z,2.65
2022-08-25T18:53:30.091Z,5.53
2022-08-25T18:56:03.934Z,4.40
2022-08-25T18:58:30.435Z,5.57
2022-08-25T19:00:56.808Z,4.40
2022-08-25T19:03:23.447Z,4.85
2022-08-25T19:05:57.026Z,4.38
2022-08-25T19:08:24.634Z,44.28
2022-08-25T19:10:53.489Z,77.45
2022-08-25T19:13:22.831Z,41.58
2022-08-25T19:15:51.259Z,24.45
2022-08-25T19:18:18.401Z,12.52
2022-08-25T19:20:45.310Z,7.82
2022-08-25T19:23:13.063Z,8.90
2022-08-25T19:28:11.986Z,6.88
2022-08-25T19:30:39.177Z,7.75
2022-08-25T19:33:41.944Z,8.52
2022-08-25T19:36:05.824Z,7.53
2022-08-25T19:38:35.599Z,6.45
2022-08-25T19:41:02.488Z,5.88
2022-08-25T19:43:28.892Z,9.32
2022-08-25T19:45:55.328Z,9.82
2022-08-25T19:48:23.326Z,8.98
2022-08-25T19:50:56.108Z,8.43
2022-08-25T19:53:22.986Z,6.07
2022-08-25T19:55:49.895Z,9.82
2022-08-25T19:58:17.881Z,6.07
2022-08-25T20:00:47.115Z,5.65
2022-08-25T20:03:17.317Z,6.43
2022-08-25T20:08:10.351Z,5.43
2022-08-25T20:10:41.688Z,6.32
2022-08-25T20:13:09.626Z,5.13
2022-08-25T20:15:38.009Z,9.57
2022-08-25T20:18:06.025Z,9.55
2022-08-25T20:20:34.643Z,9.65
2022-08-25T20:23:21.072Z,8.73
2022-08-25T20:25:50.222Z,12.20
2022-08-25T20:28:18.888Z,13.20
2022-08-25T20:30:45.933Z,12.73
2022-08-25T20:33:12.627Z,14.57
2022-08-25T20:35:39.013Z,11.93
2022-08-25T20:38:07.966Z,14.82
2022-08-25T20:40:34.909Z,13.70
2022-08-25T20:43:04.343Z,14.18
2022-08-25T20:45:31.039Z,14.68
2022-08-25T20:47:57.436Z,18.08
2022-08-25T20:50:23.998Z,18.38
2022-08-25T20:52:51.978Z,18.63
2022-08-25T20:55:19.121Z,17.65
2022-08-25T20:57:46.195Z,25.95
2022-08-25T21:00:13.273Z,18.00
2022-08-25T21:02:39.870Z,23.88
2022-08-25T21:05:07.232Z,26.23
2022-08-25T21:07:35.804Z,25.85
2022-08-25T21:10:05.542Z,20.30
2022-08-25T21:12:32.107Z,29.38
2022-08-25T21:14:58.543Z,29.20
2022-08-25T21:17:24.890Z,25.95
2022-08-25T21:19:51.633Z,30.65
2022-08-25T21:22:18.018Z,28.17
2022-08-25T21:24:45.006Z,36.80
2022-08-25T21:27:11.424Z,21.27
2022-08-25T21:29:38.345Z,32.47
2022-08-25T21:32:11.398Z,33.65
2022-08-25T21:34:37.740Z,33.58
2022-08-25T21:37:05.177Z,32.35
2022-08-25T21:39:33.046Z,30.63
2022-08-25T21:44:27.084Z,32.72
2022-08-25T21:46:54.058Z,31.77
2022-08-25T21:49:22.055Z,33.30
2022-08-25T21:51:59.125Z,30.20
2022-08-25T21:54:27.061Z,29.83
2022-08-25T21:56:59.491Z,29.23
2022-08-25T21:59:36.184Z,29.65
2022-08-25T22:02:10.010Z,27.20
2022-08-25T22:04:38.298Z,21.45
2022-08-25T22:07:06.569Z,28.20
2022-08-25T22:09:33.044Z,27.98
2022-08-25T22:11:59.841Z,28.55
2022-08-25T22:14:26.951Z,26.75
2022-08-25T22:16:55.120Z,27.70
2022-08-25T22:19:22.810Z,29.42
2022-08-25T22:21:50.004Z,29.02
2022-08-25T22:24:17.767Z,26.08
2022-08-25T22:26:47.352Z,27.85
2022-08-25T22:29:16.669Z,28.77
2022-08-25T22:31:59.443Z,30.00
2022-08-25T22:34:32.100Z,29.70
2022-08-25T22:37:00.055Z,28.35
2022-08-25T22:39:27.365Z,28.65
2022-08-25T22:41:53.845Z,32.77
2022-08-25T22:44:20.248Z,33.50
2022-08-25T22:46:46.694Z,28.90
2022-08-25T22:49:13.049Z,32.67
2022-08-25T22:51:39.467Z,29.90
2022-08-25T22:54:05.879Z,29.35
2022-08-25T22:56:37.652Z,29.20
2022-08-25T22:59:10.165Z,28.83
2022-08-25T23:01:36.704Z,27.58
2022-08-25T23:04:05.377Z,26.95
2022-08-25T23:06:34.303Z,28.33
2022-08-25T23:09:01.282Z,28.40
2022-08-25T23:11:28.997Z,24.42
2022-08-25T23:13:57.215Z,27.85
2022-08-25T23:18:51.109Z,23.83
2022-08-25T23:21:41.028Z,19.65
2022-08-25T23:24:09.045Z,24.48
2022-08-25T23:26:37.243Z,31.13
2022-08-25T23:29:18.846Z,26.73
2022-08-25T23:31:47.533Z,28.92
2022-08-25T23:34:15.262Z,27.15
2022-08-25T23:36:41.675Z,25.92
2022-08-25T23:39:08.921Z,26.38
2022-08-25T23:41:36.928Z,22.77
2022-08-25T23:44:05.276Z,23.00
2022-08-25T23:46:34.778Z,25.40
2022-08-25T23:49:02.427Z,22.38
2022-08-25T23:51:33.566Z,25.38
2022-08-25T23:54:05.713Z,22.25
2022-08-25T23:56:34.315Z,20.05
2022-08-25T23:59:02.871Z,22.25
